createdAt,value
2024-04-30T00:01:46.095Z,9.09
2024-04-30T00:04:47.950Z,9.03
2024-04-30T00:07:49.669Z,8.94
2024-04-30T00:10:51.572Z,8.85
2024-04-30T00:13:53.597Z,8.85
2024-04-30T00:16:55.295Z,8.78
2024-04-30T00:19:57.050Z,8.68
2024-04-30T00:22:58.856Z,8.63
2024-04-30T00:26:00.588Z,8.61
2024-04-30T00:29:02.440Z,8.53
2024-04-30T00:32:04.423Z,8.42
2024-04-30T00:35:06.148Z,8.42
2024-04-30T00:38:07.837Z,8.38
2024-04-30T00:41:09.522Z,8.32
2024-04-30T00:44:11.139Z,8.30
2024-04-30T00:47:14.590Z,8.32
2024-04-30T00:50:16.283Z,8.34
2024-04-30T00:53:18.608Z,8.38
2024-04-30T00:56:20.329Z,8.40
2024-04-30T00:59:21.994Z,8.38
2024-04-30T01:02:25.874Z,8.26
2024-04-30T01:05:27.654Z,8.27
2024-04-30T01:08:29.357Z,8.16
2024-04-30T01:11:31.275Z,8.16
2024-04-30T01:14:32.958Z,8.17
2024-04-30T01:17:34.745Z,8.15
2024-04-30T01:20:36.463Z,8.11
2024-04-30T01:23:38.183Z,8.10
2024-04-30T01:26:39.857Z,8.11
2024-04-30T01:29:41.517Z,8.17
2024-04-30T01:32:43.325Z,8.18
2024-04-30T01:35:45.489Z,8.19
2024-04-30T01:38:47.177Z,8.20
2024-04-30T01:41:48.805Z,8.23
2024-04-30T01:44:50.433Z,8.25
2024-04-30T01:47:52.241Z,8.28
2024-04-30T01:50:54.057Z,8.25
2024-04-30T01:53:55.712Z,8.19
2024-04-30T01:56:57.442Z,8.16
2024-04-30T01:59:59.126Z,8.12
2024-04-30T02:03:00.821Z,8.08
2024-04-30T02:06:02.530Z,8.04
2024-04-30T02:09:04.357Z,8.02
2024-04-30T02:12:06.314Z,8.00
2024-04-30T02:15:08.228Z,7.95
2024-04-30T02:18:10.367Z,7.97
2024-04-30T02:21:12.082Z,7.96
2024-04-30T02:24:13.773Z,7.90
2024-04-30T02:27:15.422Z,7.82
2024-04-30T02:30:42.796Z,7.75
2024-04-30T02:34:03.224Z,7.75
2024-04-30T02:37:05.005Z,7.76
2024-04-30T02:40:07.411Z,7.72
2024-04-30T02:43:08.938Z,7.69
2024-04-30T02:46:10.651Z,7.72
2024-04-30T02:49:12.445Z,7.68
2024-04-30T02:52:14.180Z,7.50
2024-04-30T02:55:15.885Z,7.50
2024-04-30T02:58:17.740Z,7.54
2024-04-30T03:01:19.491Z,7.50
2024-04-30T03:04:21.259Z,7.49
2024-04-30T03:07:23.024Z,7.46
2024-04-30T03:10:24.901Z,7.34
2024-04-30T03:13:26.946Z,7.23
2024-04-30T03:16:28.663Z,7.17
2024-04-30T03:19:30.495Z,7.16
2024-04-30T03:22:32.331Z,7.16
2024-04-30T03:25:34.105Z,7.13
2024-04-30T03:28:35.974Z,7.03
2024-04-30T03:31:37.775Z,7.06
2024-04-30T03:34:39.521Z,7.09
2024-04-30T03:37:41.215Z,7.08
2024-04-30T03:40:42.980Z,7.09
2024-04-30T03:43:44.759Z,7.08
2024-04-30T03:46:46.389Z,6.95
2024-04-30T03:49:48.294Z,6.95
2024-04-30T03:52:50.024Z,6.89
2024-04-30T03:55:51.691Z,6.87
2024-04-30T03:58:53.448Z,6.82
2024-04-30T04:01:55.148Z,6.81
2024-04-30T04:04:56.902Z,6.83
2024-04-30T04:07:58.623Z,6.76
2024-04-30T04:11:19.173Z,6.68
2024-04-30T04:14:39.509Z,6.68
2024-04-30T04:17:41.246Z,6.65
2024-04-30T04:20:42.978Z,6.70
2024-04-30T04:23:44.642Z,6.70
2024-04-30T04:26:46.325Z,6.75
2024-04-30T04:29:47.995Z,6.78
2024-04-30T04:32:49.756Z,6.78
2024-04-30T04:35:51.557Z,6.68
2024-04-30T04:38:53.225Z,6.65
2024-04-30T04:41:54.924Z,6.73
2024-04-30T04:44:56.610Z,6.77
2024-04-30T04:47:58.357Z,6.84
2024-04-30T04:51:00.361Z,6.83
2024-04-30T04:54:02.087Z,6.83
2024-04-30T04:57:03.826Z,6.83
2024-04-30T05:00:06.010Z,6.74
2024-04-30T05:03:07.678Z,6.75
2024-04-30T05:06:09.323Z,6.76
2024-04-30T05:09:11.068Z,6.73
2024-04-30T05:12:12.957Z,6.75
2024-04-30T05:15:14.661Z,6.85
2024-04-30T05:18:16.455Z,6.96
2024-04-30T05:21:18.121Z,7.02
2024-04-30T05:24:19.799Z,7.08
2024-04-30T05:27:21.487Z,7.13
2024-04-30T05:30:23.139Z,7.18
2024-04-30T05:33:27.042Z,7.21
2024-04-30T05:36:28.765Z,7.20
2024-04-30T05:39:30.567Z,7.22
2024-04-30T05:42:32.297Z,7.30
2024-04-30T05:45:33.999Z,7.41
2024-04-30T05:48:36.552Z,7.50
2024-04-30T05:51:40.174Z,7.63
2024-04-30T05:54:41.853Z,7.73
2024-04-30T05:57:43.525Z,7.85
2024-04-30T06:00:45.214Z,7.95
2024-04-30T06:03:47.017Z,8.07
2024-04-30T06:06:48.733Z,8.15
2024-04-30T06:09:50.391Z,8.26
2024-04-30T06:12:52.124Z,8.39
2024-04-30T06:15:53.783Z,8.54
2024-04-30T06:18:55.624Z,8.63
2024-04-30T06:21:57.313Z,8.71
2024-04-30T06:24:59.039Z,8.79
2024-04-30T06:28:00.776Z,8.92
2024-04-30T06:31:02.546Z,9.03
2024-04-30T06:34:05.224Z,9.14
2024-04-30T06:37:07.055Z,9.26
2024-04-30T06:40:09.145Z,9.40
2024-04-30T06:43:11.015Z,9.57
2024-04-30T06:46:15.039Z,9.74
2024-04-30T06:49:16.772Z,9.91
2024-04-30T06:52:18.511Z,10.04
2024-04-30T06:55:20.278Z,10.21
2024-04-30T06:58:22.033Z,10.37
2024-04-30T07:01:23.857Z,10.55
2024-04-30T07:04:25.625Z,10.72
2024-04-30T07:07:27.398Z,10.90
2024-04-30T07:10:29.135Z,11.03
2024-04-30T07:13:30.859Z,11.21
2024-04-30T07:16:39.710Z,11.29
2024-04-30T07:19:44.716Z,11.47
2024-04-30T07:22:46.724Z,11.67
2024-04-30T07:25:48.534Z,11.91
2024-04-30T07:28:50.286Z,12.14
2024-04-30T07:31:52.443Z,12.31
2024-04-30T07:34:54.191Z,12.52
2024-04-30T07:37:55.867Z,12.72
2024-04-30T07:40:57.553Z,12.90
2024-04-30T07:43:59.226Z,13.16
2024-04-30T07:47:00.940Z,13.48
2024-04-30T07:50:02.763Z,13.69
2024-04-30T07:53:04.583Z,13.80
2024-04-30T07:56:06.502Z,14.01
2024-04-30T07:59:08.187Z,14.21
2024-04-30T08:02:13.891Z,14.45
2024-04-30T08:05:16.362Z,14.68
2024-04-30T08:08:19.981Z,14.95
2024-04-30T08:11:23.164Z,15.18
2024-04-30T08:14:24.938Z,15.39
2024-04-30T08:17:26.651Z,15.74
2024-04-30T08:20:31.135Z,15.96
2024-04-30T08:23:32.814Z,16.22
2024-04-30T08:26:36.655Z,16.36
2024-04-30T08:29:38.377Z,16.50
2024-04-30T08:32:40.619Z,16.72
2024-04-30T08:35:42.890Z,17.07
2024-04-30T08:38:44.572Z,17.19
2024-04-30T08:41:47.335Z,17.47
2024-04-30T08:44:51.556Z,17.74
2024-04-30T08:47:55.131Z,17.91
2024-04-30T08:50:56.936Z,17.92
2024-04-30T08:53:59.082Z,18.11
2024-04-30T08:57:00.761Z,18.20
2024-04-30T09:00:02.615Z,18.35
2024-04-30T09:03:04.913Z,18.25
2024-04-30T09:06:06.827Z,18.19
2024-04-30T09:09:12.335Z,18.19
2024-04-30T09:12:14.052Z,18.49
2024-04-30T09:15:18.500Z,18.48
2024-04-30T09:18:20.262Z,18.77
2024-04-30T09:21:28.474Z,18.87
2024-04-30T09:24:30.237Z,19.01
2024-04-30T09:27:33.048Z,19.43
2024-04-30T09:30:34.801Z,19.75
2024-04-30T09:33:36.594Z,19.83
2024-04-30T09:36:38.737Z,19.98
2024-04-30T09:39:40.405Z,19.81
2024-04-30T09:42:42.116Z,19.44
2024-04-30T09:45:44.109Z,19.38
2024-04-30T09:48:45.783Z,19.40
2024-04-30T09:51:48.189Z,19.71
2024-04-30T09:54:49.995Z,20.00
2024-04-30T09:57:51.793Z,20.09
2024-04-30T10:00:55.591Z,19.85
2024-04-30T10:03:57.307Z,19.56
2024-04-30T10:06:58.987Z,19.71
2024-04-30T10:10:01.818Z,19.90
2024-04-30T10:13:11.034Z,19.84
2024-04-30T10:16:16.190Z,20.07
2024-04-30T10:19:17.987Z,20.30
2024-04-30T10:22:19.880Z,20.38
2024-04-30T10:25:22.625Z,20.46
2024-04-30T10:28:24.625Z,21.06
2024-04-30T10:31:26.656Z,21.05
2024-04-30T10:34:28.382Z,20.88
2024-04-30T10:37:30.481Z,20.79
2024-04-30T10:40:32.231Z,20.81
2024-04-30T10:43:34.033Z,20.75
2024-04-30T10:46:35.854Z,21.14
2024-04-30T10:49:37.585Z,20.61
2024-04-30T10:52:39.398Z,20.41
2024-04-30T10:55:43.154Z,20.31
2024-04-30T10:58:59.136Z,20.73
2024-04-30T11:02:00.978Z,20.79
2024-04-30T11:05:16.085Z,21.07
2024-04-30T11:08:23.900Z,21.64
2024-04-30T11:11:44.096Z,22.17
2024-04-30T11:14:48.364Z,22.03
2024-04-30T11:17:50.179Z,22.14
2024-04-30T11:20:51.960Z,21.97
2024-04-30T11:23:53.608Z,21.98
2024-04-30T11:26:55.261Z,22.33
2024-04-30T11:29:56.928Z,22.51
2024-04-30T11:32:58.662Z,22.86
2024-04-30T11:36:00.424Z,22.60
2024-04-30T11:39:02.115Z,22.17
2024-04-30T11:42:13.768Z,22.44
2024-04-30T11:45:26.656Z,22.48
2024-04-30T11:48:30.348Z,22.50
2024-04-30T11:51:32.086Z,22.41
2024-04-30T11:54:35.092Z,22.37
2024-04-30T11:57:37.930Z,22.25
2024-04-30T12:00:40.599Z,21.75
2024-04-30T12:03:42.489Z,21.49
2024-04-30T12:06:44.243Z,21.94
2024-04-30T12:09:45.966Z,22.58
2024-04-30T12:12:47.754Z,23.13
2024-04-30T12:15:51.259Z,23.70
2024-04-30T12:18:54.069Z,23.76
2024-04-30T12:21:55.771Z,23.40
2024-04-30T12:24:57.552Z,22.85
2024-04-30T12:27:59.186Z,22.55
2024-04-30T12:31:00.945Z,23.11
2024-04-30T12:34:02.649Z,22.83
2024-04-30T12:37:05.331Z,23.17
2024-04-30T12:40:08.790Z,23.26
2024-04-30T12:43:10.678Z,23.35
2024-04-30T12:46:12.376Z,23.49
2024-04-30T12:49:14.127Z,23.92
2024-04-30T12:52:15.925Z,24.23
2024-04-30T12:55:17.792Z,23.86
2024-04-30T12:58:19.797Z,23.52
2024-04-30T13:01:24.286Z,23.89
2024-04-30T13:04:27.854Z,24.42
2024-04-30T13:07:31.047Z,24.52
2024-04-30T13:10:32.850Z,24.59
2024-04-30T13:13:35.805Z,24.64
2024-04-30T13:16:42.548Z,25.29
2024-04-30T13:19:44.394Z,25.30
2024-04-30T13:22:46.172Z,25.48
2024-04-30T13:25:47.890Z,25.59
2024-04-30T13:28:49.652Z,25.42
2024-04-30T13:31:51.372Z,25.74
2024-04-30T13:34:53.174Z,25.60
2024-04-30T13:37:54.865Z,25.51
2024-04-30T13:40:56.628Z,25.06
2024-04-30T13:43:58.424Z,25.48
2024-04-30T13:47:00.160Z,25.18
2024-04-30T13:50:01.866Z,25.54
2024-04-30T13:53:03.810Z,25.77
2024-04-30T13:56:06.121Z,26.00
2024-04-30T13:59:09.335Z,26.53
2024-04-30T14:02:14.951Z,26.33
2024-04-30T14:05:16.907Z,26.02
2024-04-30T14:08:18.726Z,25.70
2024-04-30T14:11:21.074Z,26.07
2024-04-30T14:14:22.788Z,25.67
2024-04-30T14:17:24.498Z,25.03
2024-04-30T14:20:26.189Z,24.70
2024-04-30T14:23:29.477Z,24.36
2024-04-30T14:26:31.118Z,23.96
2024-04-30T14:29:32.790Z,24.13
2024-04-30T14:32:34.590Z,24.50
2024-04-30T14:35:56.270Z,24.09
2024-04-30T14:38:57.958Z,23.90
2024-04-30T14:42:00.627Z,24.02
2024-04-30T14:45:02.642Z,23.82
2024-04-30T14:48:04.679Z,23.65
2024-04-30T14:51:06.361Z,23.72
2024-04-30T14:54:08.080Z,23.65
2024-04-30T14:57:09.807Z,23.61
2024-04-30T15:00:12.043Z,23.68
2024-04-30T15:03:18.645Z,23.70
2024-04-30T15:06:20.626Z,23.73
2024-04-30T15:09:22.294Z,23.37
2024-04-30T15:12:23.949Z,23.26
2024-04-30T15:15:25.573Z,23.20
2024-04-30T15:18:27.378Z,23.21
2024-04-30T15:21:29.090Z,23.12
2024-04-30T15:24:30.776Z,23.14
2024-04-30T15:27:32.429Z,23.06
2024-04-30T15:30:34.199Z,22.90
2024-04-30T15:33:36.595Z,22.87
2024-04-30T15:36:43.257Z,22.87
2024-04-30T15:39:45.960Z,22.85
2024-04-30T15:42:47.727Z,22.79
2024-04-30T15:45:49.352Z,22.89
2024-04-30T15:48:52.695Z,22.78
2024-04-30T15:51:54.662Z,22.79
2024-04-30T15:54:59.368Z,22.67
2024-04-30T15:58:02.867Z,22.55
2024-04-30T16:01:04.938Z,22.55
2024-04-30T16:04:06.663Z,22.43
2024-04-30T16:07:08.411Z,22.39
2024-04-30T16:10:10.208Z,22.30
2024-04-30T16:13:11.950Z,22.28
2024-04-30T16:16:18.395Z,22.27
2024-04-30T16:19:23.289Z,22.15
2024-04-30T16:22:25.183Z,22.22
2024-04-30T16:25:26.888Z,22.28
2024-04-30T16:28:28.661Z,22.05
2024-04-30T16:34:31.922Z,21.92
2024-04-30T16:37:33.911Z,21.84
2024-04-30T16:40:35.571Z,21.84
2024-04-30T16:43:37.303Z,21.78
2024-04-30T16:46:41.730Z,21.68
2024-04-30T16:49:43.567Z,21.57
2024-04-30T16:52:45.328Z,21.42
2024-04-30T16:55:47.021Z,21.44
2024-04-30T16:58:51.486Z,21.36
2024-04-30T17:01:54.408Z,21.24
2024-04-30T17:04:56.186Z,21.14
2024-04-30T17:07:57.895Z,20.98
2024-04-30T17:10:59.605Z,20.84
2024-04-30T17:14:01.292Z,20.76
2024-04-30T17:17:03.049Z,20.60
2024-04-30T17:20:05.150Z,20.44
2024-04-30T17:23:06.828Z,20.37
2024-04-30T17:26:09.170Z,20.22
2024-04-30T17:29:10.958Z,20.10
2024-04-30T17:32:12.806Z,19.92
2024-04-30T17:35:14.583Z,19.77
2024-04-30T17:38:16.335Z,19.66
2024-04-30T17:41:27.687Z,19.52
2024-04-30T17:44:29.431Z,19.39
2024-04-30T17:47:31.151Z,19.22
2024-04-30T17:50:32.908Z,19.09
2024-04-30T17:53:34.689Z,18.91
2024-04-30T17:56:39.606Z,18.75
2024-04-30T17:59:41.289Z,18.64
2024-04-30T18:02:42.962Z,18.48
2024-04-30T18:05:44.630Z,18.32
2024-04-30T18:08:47.208Z,18.10
2024-04-30T18:11:50.248Z,17.94
2024-04-30T18:14:52.223Z,17.79
2024-04-30T18:17:54.370Z,17.64
2024-04-30T18:20:56.061Z,17.49
2024-04-30T18:23:57.658Z,17.34
2024-04-30T18:26:59.364Z,17.20
2024-04-30T18:30:00.996Z,17.06
2024-04-30T18:33:02.707Z,16.95
2024-04-30T18:36:04.518Z,16.80
2024-04-30T18:39:06.257Z,16.62
2024-04-30T18:42:07.803Z,16.53
2024-04-30T18:45:09.460Z,16.47
2024-04-30T18:48:11.773Z,16.34
2024-04-30T18:51:13.839Z,16.24
2024-04-30T18:54:15.676Z,16.16
2024-04-30T18:57:17.300Z,16.00
2024-04-30T19:00:19.049Z,15.96
2024-04-30T19:03:21.649Z,15.89
2024-04-30T19:06:23.489Z,15.78
2024-04-30T19:09:25.056Z,15.64
2024-04-30T19:12:26.803Z,15.55
2024-04-30T19:15:28.473Z,15.40
2024-04-30T19:18:30.579Z,15.26
2024-04-30T19:21:32.424Z,15.11
2024-04-30T19:24:34.687Z,15.01
2024-04-30T19:27:36.474Z,15.02
2024-04-30T19:30:38.225Z,14.96
2024-04-30T19:33:42.679Z,14.91
2024-04-30T19:36:44.482Z,14.80
2024-04-30T19:39:46.436Z,14.66
2024-04-30T19:42:48.034Z,14.66
2024-04-30T19:45:50.751Z,14.67
2024-04-30T19:48:53.227Z,14.61
2024-04-30T19:51:56.145Z,14.51
2024-04-30T19:54:59.233Z,14.41
2024-04-30T19:58:00.976Z,14.26
2024-04-30T20:01:02.784Z,14.14
2024-04-30T20:04:04.610Z,14.05
2024-04-30T20:07:06.625Z,13.89
2024-04-30T20:10:08.232Z,13.88
2024-04-30T20:13:09.938Z,13.86
2024-04-30T20:16:11.713Z,13.80
2024-04-30T20:19:13.853Z,13.68
2024-04-30T20:22:15.527Z,13.54
2024-04-30T20:25:17.218Z,13.48
2024-04-30T20:28:18.872Z,13.39
2024-04-30T20:31:20.600Z,13.27
2024-04-30T20:34:22.341Z,13.15
2024-04-30T20:37:24.108Z,13.13
2024-04-30T20:40:26.054Z,13.08
2024-04-30T20:43:27.648Z,12.89
2024-04-30T20:46:29.287Z,12.87
2024-04-30T20:49:31.161Z,12.78
2024-04-30T20:52:32.822Z,12.82
2024-04-30T20:55:34.521Z,12.77
2024-04-30T20:58:36.385Z,12.71
2024-04-30T21:01:38.144Z,12.65
2024-04-30T21:04:39.933Z,12.53
2024-04-30T21:07:41.651Z,12.44
2024-04-30T21:10:44.382Z,12.41
2024-04-30T21:13:46.702Z,12.43
2024-04-30T21:16:48.393Z,12.42
2024-04-30T21:19:52.330Z,12.28
2024-04-30T21:22:54.062Z,12.23
2024-04-30T21:25:55.752Z,12.18
2024-04-30T21:28:57.417Z,12.13
2024-04-30T21:31:59.088Z,12.03
2024-04-30T21:35:03.051Z,11.92
2024-04-30T21:38:07.947Z,11.83
2024-04-30T21:41:09.599Z,11.75
2024-04-30T21:44:11.343Z,11.65
2024-04-30T21:47:14.936Z,11.58
2024-04-30T21:50:16.618Z,11.36
2024-04-30T21:53:18.303Z,11.33
2024-04-30T21:56:19.991Z,11.31
2024-04-30T21:59:21.656Z,11.38
2024-04-30T22:02:23.469Z,11.33
2024-04-30T22:05:25.178Z,11.29
2024-04-30T22:08:26.897Z,11.18
2024-04-30T22:11:28.654Z,11.10
2024-04-30T22:14:30.407Z,11.01
2024-04-30T22:17:32.194Z,10.98
2024-04-30T22:20:33.968Z,10.90
2024-04-30T22:23:36.927Z,10.91
2024-04-30T22:26:38.618Z,10.94
2024-04-30T22:29:40.261Z,10.86
2024-04-30T22:32:42.024Z,10.76
2024-04-30T22:35:43.770Z,10.72
2024-04-30T22:38:45.424Z,10.67
2024-04-30T22:41:47.096Z,10.57
2024-04-30T22:44:48.792Z,10.52
2024-04-30T22:47:51.014Z,10.48
2024-04-30T22:50:52.785Z,10.40
2024-04-30T22:53:55.170Z,10.41
2024-04-30T22:56:56.928Z,10.34
2024-04-30T22:59:58.645Z,10.34
2024-04-30T23:03:00.392Z,10.36
2024-04-30T23:06:02.263Z,10.38
2024-04-30T23:09:04.066Z,10.35
2024-04-30T23:12:05.917Z,10.32
2024-04-30T23:15:07.665Z,10.21
2024-04-30T23:18:09.539Z,10.18
2024-04-30T23:21:11.498Z,10.03
2024-04-30T23:24:13.191Z,10.03
2024-04-30T23:27:21.430Z,9.98
2024-04-30T23:30:23.155Z,10.06
2024-04-30T23:33:24.876Z,10.03
2024-04-30T23:36:26.673Z,10.03
2024-04-30T23:39:28.539Z,9.99
2024-04-30T23:42:31.693Z,10.00
2024-04-30T23:45:33.458Z,10.04
2024-04-30T23:48:35.144Z,10.07
2024-04-30T23:51:36.939Z,10.02
2024-04-30T23:54:38.706Z,9.94
2024-04-30T23:57:40.371Z,9.99
